Time;durP1;ratioP1;P1;durP2;ratioP2;P2;SDS_P1;SDS_P2;PMS_P1;PMS_P2;Temp;Humidity;BMP_temperature;BMP_pressure;BME280_temperature;BME280_humidity;BME280_pressure;Samples;Min_cycle;Max_cycle;Signal;HPM_P1;HPM_P2
2021/09/29 00:02:02;;;;;;;7.50;3.20;;;12.20;99.90;;;;;;5034869;28;20543;-70
2021/09/29 00:04:29;;;;;;;9.83;2.67;;;12.20;99.90;;;;;;5041420;28;20879;-68
2021/09/29 00:06:56;;;;;;;7.97;3.43;;;12.20;99.90;;;;;;5037146;28;20583;-67
2021/09/29 00:09:24;;;;;;;4.13;2.43;;;12.20;99.90;;;;;;5038135;28;20554;-67
2021/09/29 00:11:51;;;;;;;3.90;2.13;;;12.20;99.90;;;;;;5036200;28;20496;-67
2021/09/29 00:14:18;;;;;;;5.43;2.30;;;12.20;99.90;;;;;;5041290;28;20521;-69
2021/09/29 00:16:45;;;;;;;3.70;2.73;;;12.30;99.90;;;;;;5031400;28;20546;-67
2021/09/29 00:19:12;;;;;;;12.00;2.40;;;12.30;99.90;;;;;;5037079;28;20492;-68
2021/09/29 00:21:39;;;;;;;6.00;2.57;;;12.40;99.90;;;;;;5040791;28;20567;-68
2021/09/29 00:24:06;;;;;;;3.77;2.53;;;12.50;99.90;;;;;;5039547;28;20516;-68
2021/09/29 00:26:34;;;;;;;4.13;2.33;;;12.60;99.90;;;;;;5040943;28;20993;-68
2021/09/29 00:29:01;;;;;;;5.10;2.13;;;12.60;99.90;;;;;;5038247;28;20543;-68
2021/09/29 00:31:34;;;;;;;7.67;2.63;;;12.60;99.90;;;;;;5042302;28;21019;-68
2021/09/29 00:34:08;;;;;;;2.47;2.00;;;12.60;99.90;;;;;;5045927;28;20435;-69
2021/09/29 00:36:35;;;;;;;3.50;2.80;;;12.60;99.90;;;;;;5046720;28;20458;-68
2021/09/29 00:39:03;;;;;;;11.40;2.57;;;12.60;99.90;;;;;;5036409;28;20427;-67
2021/09/29 00:41:30;;;;;;;5.10;2.97;;;12.60;99.90;;;;;;5039920;28;20503;-70
2021/09/29 00:43:59;;;;;;;4.00;3.10;;;12.70;99.90;;;;;;5044947;28;20471;-69
2021/09/29 00:46:26;;;;;;;4.00;1.90;;;12.70;99.90;;;;;;5044779;28;20996;-68
2021/09/29 00:48:53;;;;;;;6.03;2.20;;;12.70;99.90;;;;;;5043458;28;20556;-68
2021/09/29 00:51:20;;;;;;;4.27;2.33;;;12.70;99.90;;;;;;5038984;28;20471;-69
2021/09/29 00:53:48;;;;;;;4.13;2.33;;;12.60;99.90;;;;;;5046076;28;20978;-70
2021/09/29 00:56:16;;;;;;;5.07;3.20;;;12.60;99.90;;;;;;5042847;28;20534;-70
2021/09/29 00:58:43;;;;;;;2.50;2.30;;;12.60;99.90;;;;;;5042030;28;20448;-69
2021/09/29 01:01:11;;;;;;;3.10;2.47;;;12.60;99.90;;;;;;5039343;28;20870;-72
2021/09/29 01:03:39;;;;;;;8.27;2.60;;;12.60;99.90;;;;;;5042203;28;20486;-71
2021/09/29 01:06:10;;;;;;;2.70;2.03;;;12.70;99.90;;;;;;5038567;28;20455;-70
2021/09/29 01:08:40;;;;;;;4.33;1.93;;;12.70;99.90;;;;;;5043885;28;21038;-70
2021/09/29 01:11:14;;;;;;;3.93;2.47;;;12.60;99.90;;;;;;5036056;28;20490;-69
2021/09/29 01:13:48;;;;;;;3.37;2.43;;;12.50;99.90;;;;;;5038762;28;20889;-69
2021/09/29 01:16:16;;;;;;;11.13;2.57;;;12.60;99.90;;;;;;5040832;28;21765;-72
2021/09/29 01:18:50;;;;;;;4.93;1.70;;;12.60;99.90;;;;;;5045366;28;20491;-68
2021/09/29 01:21:19;;;;;;;2.97;2.13;;;12.60;99.90;;;;;;5038376;28;20471;-69
2021/09/29 01:24:01;;;;;;;5.60;2.17;;;12.60;99.90;;;;;;5038519;28;20545;-70
2021/09/29 01:26:32;;;;;;;5.70;2.37;;;12.60;99.90;;;;;;5042353;28;20471;-70
2021/09/29 01:29:03;;;;;;;3.23;2.10;;;12.60;99.90;;;;;;5037536;28;20472;-68
2021/09/29 01:31:30;;;;;;;4.10;3.70;;;12.60;99.90;;;;;;5038755;28;20537;-68
2021/09/29 01:33:59;;;;;;;6.93;2.70;;;12.70;99.90;;;;;;5036530;28;20506;-68
2021/09/29 01:36:27;;;;;;;4.63;3.33;;;12.70;99.90;;;;;;5039820;28;20549;-69
2021/09/29 01:38:55;;;;;;;4.23;2.43;;;12.70;99.90;;;;;;5042058;28;20550;-67
2021/09/29 01:41:23;;;;;;;2.77;1.70;;;12.70;99.90;;;;;;5036277;28;20461;-70
2021/09/29 01:43:52;;;;;;;2.97;2.53;;;12.70;99.90;;;;;;5039347;28;20526;-67
2021/09/29 01:46:20;;;;;;;3.03;2.30;;;12.70;99.90;;;;;;5042916;28;20956;-71
2021/09/29 01:48:55;;;;;;;3.40;1.80;;;12.60;99.90;;;;;;5040794;28;20997;-71
2021/09/29 01:51:23;;;;;;;3.17;2.50;;;12.60;99.90;;;;;;5036558;28;20479;-70
2021/09/29 01:53:54;;;;;;;2.60;2.00;;;12.60;99.90;;;;;;5040611;28;20567;-70
2021/09/29 01:56:21;;;;;;;3.70;2.53;;;12.60;99.90;;;;;;5037992;28;20491;-68
2021/09/29 01:58:48;;;;;;;2.80;2.20;;;12.60;99.90;;;;;;5038477;28;20451;-68
2021/09/29 02:01:17;;;;;;;2.90;2.20;;;12.50;99.90;;;;;;5036506;28;20507;-72
2021/09/29 02:03:46;;;;;;;4.20;1.87;;;12.60;99.90;;;;;;5038514;28;20548;-68
2021/09/29 02:06:13;;;;;;;5.00;2.37;;;12.50;99.90;;;;;;5040636;28;20483;-68
2021/09/29 02:08:40;;;;;;;9.93;2.73;;;12.50;99.90;;;;;;5038706;28;20544;-72
2021/09/29 02:11:07;;;;;;;2.20;1.70;;;12.50;99.90;;;;;;5036166;28;20479;-68
2021/09/29 02:13:34;;;;;;;8.90;1.80;;;12.40;99.90;;;;;;5036548;28;20557;-71
2021/09/29 02:16:01;;;;;;;5.13;2.07;;;12.40;99.90;;;;;;5038158;28;20543;-72
2021/09/29 02:18:30;;;;;;;3.47;1.70;;;12.40;99.90;;;;;;5035826;28;20435;-69
2021/09/29 02:20:57;;;;;;;4.10;1.97;;;12.50;99.90;;;;;;5037904;28;20584;-69
2021/09/29 02:23:23;;;;;;;3.70;2.40;;;12.40;99.90;;;;;;5038423;28;20472;-68
2021/09/29 02:25:50;;;;;;;3.30;2.37;;;12.40;99.90;;;;;;5036989;28;20535;-69
2021/09/29 02:28:17;;;;;;;5.20;2.37;;;12.40;99.90;;;;;;5040242;28;20472;-69
2021/09/29 02:30:44;;;;;;;7.80;2.53;;;12.40;99.90;;;;;;5037830;28;20884;-70
2021/09/29 02:33:11;;;;;;;4.90;2.43;;;12.40;99.90;;;;;;5041403;28;20642;-69
2021/09/29 02:35:40;;;;;;;2.73;2.30;;;12.40;99.90;;;;;;5035691;28;26427;-70
2021/09/29 02:38:07;;;;;;;2.33;2.00;;;12.40;99.90;;;;;;5033168;28;20546;-70
2021/09/29 02:40:34;;;;;;;3.63;1.90;;;12.40;99.90;;;;;;5034276;28;20533;-69
2021/09/29 02:43:01;;;;;;;3.33;1.93;;;12.40;99.90;;;;;;5040988;28;20879;-69
2021/09/29 02:45:28;;;;;;;7.77;2.90;;;12.40;99.90;;;;;;5041070;28;20488;-68
2021/09/29 02:47:55;;;;;;;3.77;3.43;;;12.40;99.90;;;;;;5043261;28;21030;-70
2021/09/29 02:50:22;;;;;;;1.90;1.60;;;12.40;99.90;;;;;;5038795;28;20511;-70
2021/09/29 02:52:50;;;;;;;3.13;2.03;;;12.40;99.90;;;;;;5038179;28;20558;-68
2021/09/29 02:55:17;;;;;;;5.13;2.63;;;12.30;99.90;;;;;;5035808;28;20529;-70
2021/09/29 02:57:44;;;;;;;3.70;2.00;;;12.30;99.90;;;;;;5034066;28;20513;-69
2021/09/29 03:00:12;;;;;;;5.30;2.47;;;12.40;99.90;;;;;;5040049;28;20554;-69
2021/09/29 03:02:39;;;;;;;4.80;2.70;;;12.40;99.90;;;;;;5038348;28;20455;-70
2021/09/29 03:05:07;;;;;;;2.53;2.13;;;12.40;99.90;;;;;;5039636;28;20458;-68
2021/09/29 03:07:33;;;;;;;4.93;2.30;;;12.40;99.90;;;;;;5036216;28;20598;-69
2021/09/29 03:10:02;;;;;;;3.13;1.77;;;12.50;99.90;;;;;;5031630;28;20485;-71
2021/09/29 03:12:29;;;;;;;3.23;2.93;;;12.50;99.90;;;;;;5039553;28;20852;-69
2021/09/29 03:14:55;;;;;;;4.07;2.30;;;12.50;99.90;;;;;;5031996;28;20475;-69
2021/09/29 03:17:23;;;;;;;4.07;1.80;;;12.60;99.90;;;;;;5030651;28;21104;-69
2021/09/29 03:19:50;;;;;;;2.83;2.03;;;12.70;99.90;;;;;;5034838;28;20505;-70
2021/09/29 03:22:16;;;;;;;7.27;3.10;;;12.60;99.90;;;;;;5032529;28;20539;-68
2021/09/29 03:24:44;;;;;;;3.33;3.03;;;12.70;99.90;;;;;;5031272;28;20440;-69
2021/09/29 03:27:12;;;;;;;3.30;3.00;;;12.80;99.90;;;;;;5038459;28;20470;-70
2021/09/29 03:29:39;;;;;;;6.63;2.67;;;12.80;99.90;;;;;;5034097;28;20480;-69
2021/09/29 03:32:07;;;;;;;3.67;1.97;;;12.80;99.90;;;;;;5040286;28;20460;-69
2021/09/29 03:34:34;;;;;;;3.83;1.97;;;12.70;99.90;;;;;;5045696;28;20527;-70
2021/09/29 03:37:00;;;;;;;2.20;2.00;;;12.80;99.90;;;;;;5042527;28;21009;-70
2021/09/29 03:39:27;;;;;;;2.60;1.97;;;12.70;99.90;;;;;;5027653;28;20998;-74
2021/09/29 03:41:54;;;;;;;3.67;2.10;;;12.70;99.90;;;;;;5024328;28;20491;-70
2021/09/29 03:44:23;;;;;;;4.60;2.67;;;12.70;99.90;;;;;;5034071;28;20452;-70
2021/09/29 03:46:50;;;;;;;4.30;2.30;;;12.70;99.90;;;;;;5034928;28;20456;-69
2021/09/29 03:49:17;;;;;;;7.13;2.63;;;12.70;99.90;;;;;;5036593;28;20581;-70
2021/09/29 03:51:43;;;;;;;17.63;2.60;;;12.70;99.90;;;;;;5027299;28;20534;-68
2021/09/29 03:54:10;;;;;;;5.83;2.20;;;12.60;99.90;;;;;;5037231;28;20484;-71
2021/09/29 03:56:37;;;;;;;3.63;2.73;;;12.60;99.90;;;;;;5033944;28;20443;-73
2021/09/29 03:59:05;;;;;;;6.03;2.87;;;12.70;99.90;;;;;;5029657;28;21238;-71
2021/09/29 04:01:33;;;;;;;2.80;2.53;;;12.50;99.90;;;;;;5039390;28;20449;-70
2021/09/29 04:04:00;;;;;;;2.20;1.70;;;12.50;99.90;;;;;;5031478;28;20535;-70
2021/09/29 04:06:27;;;;;;;7.93;2.60;;;12.40;99.90;;;;;;5035676;28;20442;-70
2021/09/29 04:08:55;;;;;;;4.77;4.37;;;12.60;99.90;;;;;;5032841;28;20479;-69
2021/09/29 04:11:22;;;;;;;5.50;2.00;;;12.60;99.90;;;;;;5024657;28;20479;-70
2021/09/29 04:13:49;;;;;;;5.67;2.27;;;12.60;99.90;;;;;;5025579;28;20590;-69
2021/09/29 04:16:16;;;;;;;4.43;2.50;;;12.50;99.90;;;;;;5038320;28;20488;-69
2021/09/29 04:18:45;;;;;;;2.83;2.23;;;12.60;99.90;;;;;;5036237;28;20541;-68
2021/09/29 04:21:12;;;;;;;2.60;2.30;;;12.70;99.90;;;;;;5037043;28;20610;-68
2021/09/29 04:23:39;;;;;;;3.33;2.97;;;12.80;99.90;;;;;;5035863;28;20457;-67
2021/09/29 04:26:06;;;;;;;3.93;2.70;;;12.90;99.90;;;;;;5033809;28;20425;-68
2021/09/29 04:28:33;;;;;;;7.77;4.47;;;12.90;99.90;;;;;;5039562;28;20494;-67
2021/09/29 04:31:02;;;;;;;6.80;3.40;;;12.90;99.90;;;;;;5018997;28;20987;-70
2021/09/29 04:33:29;;;;;;;16.73;3.60;;;12.90;99.90;;;;;;5037751;28;20458;-68
2021/09/29 04:35:58;;;;;;;4.43;2.63;;;13.00;99.90;;;;;;5032978;28;20550;-69
2021/09/29 04:38:25;;;;;;;4.50;2.83;;;13.10;99.90;;;;;;5022927;28;20483;-67
2021/09/29 04:40:52;;;;;;;11.80;3.63;;;13.10;99.90;;;;;;5018939;28;21085;-69
2021/09/29 04:43:19;;;;;;;10.20;3.40;;;13.10;99.90;;;;;;5038441;28;20540;-68
2021/09/29 04:45:46;;;;;;;3.60;2.37;;;13.10;99.90;;;;;;5037519;28;20538;-69
2021/09/29 04:48:14;;;;;;;9.87;3.93;;;13.10;99.90;;;;;;5040384;28;21171;-67
2021/09/29 04:50:41;;;;;;;8.10;2.80;;;13.10;99.90;;;;;;5038784;28;20522;-68
2021/09/29 04:53:10;;;;;;;12.73;4.17;;;13.10;99.90;;;;;;5040253;28;20546;-70
2021/09/29 04:55:37;;;;;;;2.77;2.13;;;13.00;99.90;;;;;;5035257;28;20463;-69
2021/09/29 04:58:04;;;;;;;4.23;2.67;;;13.20;99.90;;;;;;5037020;28;20432;-71
2021/09/29 05:00:32;;;;;;;4.17;2.33;;;13.30;99.90;;;;;;5036854;28;20491;-69
2021/09/29 05:02:59;;;;;;;11.63;3.70;;;13.10;99.90;;;;;;5044902;28;20554;-69
2021/09/29 05:05:26;;;;;;;6.90;3.00;;;13.10;99.90;;;;;;5034230;28;20546;-70
2021/09/29 05:07:58;;;;;;;7.43;3.50;;;13.00;99.90;;;;;;5033279;28;20522;-71
2021/09/29 05:10:36;;;;;;;11.50;2.97;;;12.90;99.90;;;;;;5034552;28;20570;-70
2021/09/29 05:13:07;;;;;;;2.57;2.33;;;12.90;99.90;;;;;;5034407;28;20540;-71
2021/09/29 05:15:34;;;;;;;5.10;2.50;;;12.80;99.90;;;;;;5033963;28;20526;-70
2021/09/29 05:18:01;;;;;;;5.30;2.47;;;12.90;99.90;;;;;;5037541;28;20823;-70
2021/09/29 05:20:28;;;;;;;3.53;2.83;;;12.90;99.90;;;;;;5034996;28;20524;-71
2021/09/29 05:22:55;;;;;;;6.57;3.40;;;12.90;99.90;;;;;;5037404;28;20544;-69
2021/09/29 05:25:22;;;;;;;6.53;2.40;;;12.90;99.90;;;;;;5040451;28;20572;-68
2021/09/29 05:27:52;;;;;;;3.40;2.57;;;12.90;99.90;;;;;;5035082;28;20456;-70
2021/09/29 05:30:19;;;;;;;4.83;2.37;;;12.90;99.90;;;;;;5031838;28;20570;-69
2021/09/29 05:32:46;;;;;;;4.60;2.50;;;12.80;99.90;;;;;;5035178;28;20426;-69
2021/09/29 05:35:14;;;;;;;2.57;1.93;;;13.00;99.90;;;;;;5039723;28;21725;-70
2021/09/29 05:37:40;;;;;;;3.63;1.87;;;13.10;99.90;;;;;;5040028;28;20607;-68
2021/09/29 05:40:09;;;;;;;3.97;2.03;;;13.10;99.90;;;;;;5035897;28;20543;-69
2021/09/29 05:42:36;;;;;;;6.30;1.80;;;13.20;99.90;;;;;;5041832;28;20475;-69
2021/09/29 05:45:06;;;;;;;3.90;2.10;;;13.10;99.90;;;;;;5038020;28;20453;-69
2021/09/29 05:47:33;;;;;;;3.10;1.77;;;13.10;99.90;;;;;;5036951;28;20832;-69
2021/09/29 05:50:00;;;;;;;3.73;1.60;;;13.20;99.90;;;;;;5036627;28;22045;-69
2021/09/29 05:52:27;;;;;;;3.43;2.27;;;13.10;99.90;;;;;;5028964;28;20654;-70
2021/09/29 05:54:54;;;;;;;3.00;1.83;;;13.10;99.90;;;;;;5043550;28;20935;-68
2021/09/29 05:57:21;;;;;;;6.20;2.17;;;13.20;99.90;;;;;;5042384;28;20440;-70
2021/09/29 06:02:31;;;;;;;1.93;1.83;;;13.30;99.90;;;;;;5021613;28;20484;-74
2021/09/29 06:04:58;;;;;;;4.67;1.83;;;13.30;99.90;;;;;;5018698;28;20805;-72
2021/09/29 06:07:25;;;;;;;8.23;2.80;;;13.40;99.90;;;;;;5024823;28;20508;-70
2021/09/29 06:09:52;;;;;;;1.60;1.50;;;13.40;99.90;;;;;;5025474;28;20480;-71
2021/09/29 06:12:19;;;;;;;7.00;2.67;;;13.30;99.90;;;;;;5001608;28;20477;-71
2021/09/29 06:14:50;;;;;;;3.97;2.10;;;13.30;99.90;;;;;;5012658;28;20464;-71
2021/09/29 06:17:22;;;;;;;2.80;1.80;;;13.40;99.90;;;;;;5013727;28;20454;-72
2021/09/29 06:19:52;;;;;;;4.83;2.30;;;13.60;99.90;;;;;;5007040;28;20447;-70
2021/09/29 06:22:20;;;;;;;2.90;1.67;;;13.80;99.90;;;;;;5006434;28;20464;-70
2021/09/29 06:24:47;;;;;;;5.60;2.13;;;13.90;99.90;;;;;;5012704;28;20457;-72
2021/09/29 06:27:14;;;;;;;13.80;1.80;;;14.00;99.90;;;;;;5013961;28;20527;-70
2021/09/29 06:29:41;;;;;;;3.20;1.37;;;14.00;99.90;;;;;;5006446;28;20900;-71
2021/09/29 06:32:09;;;;;;;2.33;1.80;;;14.20;99.90;;;;;;5010945;28;20485;-69
2021/09/29 06:34:36;;;;;;;3.43;2.17;;;14.40;99.90;;;;;;5005352;28;20825;-74
2021/09/29 06:37:05;;;;;;;1.90;1.67;;;14.40;99.90;;;;;;5001000;28;20511;-73
2021/09/29 06:39:32;;;;;;;2.77;1.70;;;14.50;99.90;;;;;;5003133;28;20469;-70
2021/09/29 06:42:00;;;;;;;11.07;2.00;;;14.40;99.90;;;;;;5003418;28;20480;-71
2021/09/29 06:44:28;;;;;;;1.60;1.43;;;14.60;99.90;;;;;;4998439;28;20488;-75
2021/09/29 06:46:56;;;;;;;14.20;2.60;;;14.80;99.90;;;;;;5003046;28;20432;-75
2021/09/29 06:49:23;;;;;;;2.53;1.50;;;14.80;99.90;;;;;;5004505;28;20496;-74
2021/09/29 06:51:50;;;;;;;1.80;1.50;;;15.00;99.90;;;;;;5006478;28;20436;-71
2021/09/29 06:54:18;;;;;;;4.03;1.43;;;15.00;99.90;;;;;;4998431;28;20878;-71
2021/09/29 06:56:46;;;;;;;3.83;1.87;;;15.00;99.90;;;;;;5005911;28;20465;-74
2021/09/29 06:59:13;;;;;;;1.70;1.40;;;14.90;99.90;;;;;;5009186;28;20441;-72
2021/09/29 07:01:40;;;;;;;3.93;1.90;;;14.70;99.90;;;;;;5005906;28;20996;-72
2021/09/29 07:04:07;;;;;;;2.73;1.77;;;14.80;99.90;;;;;;5008784;28;20432;-70
2021/09/29 07:06:34;;;;;;;3.70;2.43;;;15.00;99.90;;;;;;5004132;28;20517;-74
2021/09/29 07:09:01;;;;;;;3.93;2.47;;;14.90;99.90;;;;;;4997549;28;21094;-72
2021/09/29 07:11:29;;;;;;;2.30;2.10;;;15.00;99.90;;;;;;5001572;28;20927;-71
2021/09/29 07:13:57;;;;;;;4.03;1.80;;;14.90;99.90;;;;;;5011556;28;20428;-75
2021/09/29 07:16:25;;;;;;;4.43;1.40;;;14.80;99.90;;;;;;5012413;28;20456;-74
2021/09/29 07:18:54;;;;;;;4.70;1.70;;;14.90;99.90;;;;;;5009236;28;20462;-72
2021/09/29 07:21:21;;;;;;;2.93;2.23;;;14.90;99.90;;;;;;5009311;28;20473;-71
2021/09/29 07:23:48;;;;;;;1.90;1.50;;;14.80;99.90;;;;;;5011541;28;20844;-74
2021/09/29 07:26:15;;;;;;;7.50;1.90;;;14.80;99.90;;;;;;5009340;28;20457;-71
2021/09/29 07:28:44;;;;;;;2.10;1.47;;;14.70;99.90;;;;;;5011144;28;20511;-77
2021/09/29 07:31:11;;;;;;;4.27;1.73;;;14.80;99.90;;;;;;5010815;28;20493;-77
2021/09/29 07:33:38;;;;;;;4.23;2.20;;;14.80;99.90;;;;;;5012118;28;20424;-72
2021/09/29 07:36:06;;;;;;;4.07;2.23;;;14.80;99.90;;;;;;5000379;28;20888;-73
2021/09/29 07:38:33;;;;;;;2.93;1.77;;;14.80;99.90;;;;;;5002051;28;20846;-74
2021/09/29 07:41:00;;;;;;;3.10;1.50;;;14.80;99.90;;;;;;5004463;28;20477;-71
2021/09/29 07:43:27;;;;;;;3.40;2.50;;;14.80;99.90;;;;;;5005955;28;20471;-72
2021/09/29 07:45:57;;;;;;;4.10;2.03;;;14.80;99.90;;;;;;5004274;28;20792;-70
2021/09/29 07:48:24;;;;;;;4.07;1.80;;;14.90;99.90;;;;;;5002785;28;20971;-76
2021/09/29 07:50:51;;;;;;;5.93;2.50;;;14.80;99.90;;;;;;4997675;28;20485;-72
2021/09/29 07:53:21;;;;;;;2.03;1.57;;;14.80;99.90;;;;;;4992691;28;20469;-69
2021/09/29 07:55:48;;;;;;;2.50;2.10;;;14.90;99.90;;;;;;5001960;28;21269;-72
2021/09/29 07:58:16;;;;;;;3.23;1.63;;;14.90;99.90;;;;;;5000602;28;20452;-71
2021/09/29 08:00:46;;;;;;;3.20;2.10;;;14.80;99.90;;;;;;4996702;28;20512;-73
2021/09/29 08:03:15;;;;;;;2.67;1.83;;;14.70;99.90;;;;;;5005676;28;20508;-71
2021/09/29 08:05:42;;;;;;;2.20;1.93;;;14.70;99.90;;;;;;4995373;28;20835;-73
2021/09/29 08:08:09;;;;;;;13.73;2.00;;;14.80;99.90;;;;;;4992652;28;20469;-73
2021/09/29 08:10:36;;;;;;;2.80;1.77;;;14.90;99.90;;;;;;5001328;28;20559;-70
2021/09/29 08:13:03;;;;;;;3.03;1.80;;;14.90;99.90;;;;;;4999178;28;20475;-74
2021/09/29 08:15:31;;;;;;;2.80;2.20;;;14.80;99.90;;;;;;4998688;28;21012;-72
2021/09/29 08:17:58;;;;;;;2.47;2.00;;;14.90;99.90;;;;;;5001812;28;20512;-73
2021/09/29 08:20:28;;;;;;;2.03;1.40;;;14.70;99.90;;;;;;4992417;28;20571;-74
2021/09/29 08:23:00;;;;;;;2.70;1.70;;;14.90;99.90;;;;;;4991202;28;20454;-72
2021/09/29 08:25:50;;;;;;;9.60;1.90;;;15.10;99.90;;;;;;5002029;28;20460;-72
2021/09/29 08:28:30;;;;;;;4.57;2.23;;;15.10;99.90;;;;;;4994390;28;20458;-72
2021/09/29 08:31:04;;;;;;;1.87;1.43;;;15.20;99.90;;;;;;5007437;28;20499;-72
2021/09/29 08:36:23;;;;;;;3.00;1.50;;;15.10;99.90;;;;;;4991193;28;20465;-73
2021/09/29 08:38:54;;;;;;;3.13;1.70;;;15.10;99.90;;;;;;4994897;28;20478;-72
2021/09/29 08:41:37;;;;;;;4.23;2.53;;;15.00;99.90;;;;;;4988077;28;20490;-75
2021/09/29 08:44:07;;;;;;;1.70;1.60;;;15.00;99.90;;;;;;5001781;28;21009;-71
2021/09/29 08:46:45;;;;;;;3.87;2.23;;;14.90;99.90;;;;;;5005237;28;20468;-72
2021/09/29 08:49:21;;;;;;;1.70;1.60;;;14.70;99.90;;;;;;5000011;28;20471;-71
2021/09/29 08:52:09;;;;;;;2.87;1.73;;;14.60;99.90;;;;;;5003254;28;20552;-71
2021/09/29 08:57:48;;;;;;;1.60;1.47;;;14.60;99.90;;;;;;4985444;28;20488;-71
2021/09/29 09:16:46;;;;;;;2.13;1.97;;;14.60;99.90;;;;;;5004572;28;20503;-71
2021/09/29 09:19:15;;;;;;;11.53;2.53;;;14.70;99.90;;;;;;5004517;28;20767;-73
2021/09/29 09:21:55;;;;;;;4.80;2.23;;;14.60;99.90;;;;;;5009299;28;20480;-72
2021/09/29 09:24:25;;;;;;;8.73;2.47;;;14.50;99.90;;;;;;5005233;28;20476;-72
2021/09/29 09:26:59;;;;;;;3.03;2.03;;;14.50;99.90;;;;;;5003585;28;20469;-70
2021/09/29 09:29:26;;;;;;;3.63;1.77;;;14.70;99.90;;;;;;5007563;28;20534;-70
2021/09/29 09:31:54;;;;;;;3.30;2.00;;;14.80;99.90;;;;;;5000016;28;20445;-69
2021/09/29 09:34:21;;;;;;;3.53;2.27;;;14.60;99.90;;;;;;4986304;28;20472;-68
2021/09/29 09:36:50;;;;;;;3.83;1.70;;;14.80;99.90;;;;;;4999763;28;20523;-72
2021/09/29 09:39:21;;;;;;;10.93;2.10;;;14.90;99.90;;;;;;4991743;28;20559;-69
2021/09/29 09:41:52;;;;;;;6.87;2.03;;;14.90;99.90;;;;;;4994243;28;20597;-71
2021/09/29 09:44:24;;;;;;;4.00;1.83;;;14.90;99.90;;;;;;5005390;28;20524;-70
2021/09/29 09:47:01;;;;;;;3.97;2.00;;;15.10;99.90;;;;;;5002692;28;20546;-71
2021/09/29 09:49:29;;;;;;;3.50;1.73;;;15.00;99.90;;;;;;5004400;28;20458;-72
2021/09/29 09:51:59;;;;;;;2.37;1.80;;;15.00;99.90;;;;;;5004990;28;20465;-73
2021/09/29 09:54:35;;;;;;;2.80;1.90;;;14.90;99.90;;;;;;5008067;28;20463;-70
2021/09/29 09:57:09;;;;;;;4.50;1.90;;;14.80;99.90;;;;;;5010187;28;20457;-71
2021/09/29 09:59:36;;;;;;;2.03;1.83;;;14.70;99.90;;;;;;5006973;28;20778;-70
2021/09/29 10:02:04;;;;;;;9.57;4.83;;;14.60;99.90;;;;;;5008524;28;20811;-69
2021/09/29 10:04:30;;;;;;;2.00;1.80;;;14.50;99.90;;;;;;5008370;28;20465;-73
2021/09/29 10:06:57;;;;;;;4.40;1.73;;;14.50;99.90;;;;;;5005782;28;20515;-70
2021/09/29 10:09:36;;;;;;;8.63;2.13;;;14.40;99.90;;;;;;5006928;28;20454;-74
2021/09/29 10:12:19;;;;;;;10.43;2.23;;;14.20;99.90;;;;;;4995144;28;20481;-72
2021/09/29 10:15:22;;;;;;;3.20;2.10;;;14.30;99.90;;;;;;4997469;28;20946;-71
2021/09/29 10:23:29;;;;;;;1.33;1.23;;;14.10;99.90;;;;;;5009109;28;20469;-71
2021/09/29 10:26:12;;;;;;;3.30;1.60;;;13.90;99.90;;;;;;5013499;28;20445;-72
2021/09/29 10:28:42;;;;;;;2.60;2.07;;;13.60;99.90;;;;;;5008973;28;20420;-70
2021/09/29 10:31:17;;;;;;;2.90;1.40;;;13.60;99.90;;;;;;5006701;28;20473;-71
2021/09/29 10:33:55;;;;;;;2.33;1.73;;;13.70;99.90;;;;;;5000344;28;20431;-71
2021/09/29 10:41:59;;;;;;;1.83;1.60;;;14.00;99.90;;;;;;4990695;28;20830;-71
2021/09/29 10:45:02;;;;;;;3.10;1.47;;;14.10;99.90;;;;;;4990791;28;20528;-72
2021/09/29 10:47:40;;;;;;;1.73;1.37;;;14.30;99.90;;;;;;4997787;28;20540;-70
2021/09/29 10:53:11;;;;;;;1.43;1.00;;;14.30;99.90;;;;;;4984259;28;20438;-72
2021/09/29 11:07:05;;;;;;;1.47;0.90;;;14.60;99.90;;;;;;4990187;28;20465;-76
2021/09/29 11:09:46;;;;;;;1.50;1.37;;;14.70;99.90;;;;;;4995245;28;20600;-71
2021/09/29 11:28:59;;;;;;;1.50;1.40;;;14.70;99.90;;;;;;4999958;28;21315;-76
2021/09/29 11:31:29;;;;;;;1.60;1.50;;;14.60;99.90;;;;;;5007037;28;20631;-69
2021/09/29 11:34:03;;;;;;;4.63;1.43;;;14.50;99.90;;;;;;5003156;28;20536;-72
2021/09/29 11:36:51;;;;;;;4.20;2.47;;;14.40;99.90;;;;;;5002650;28;20461;-74
2021/09/29 12:09:54;;;;;;;2.80;2.00;;;14.60;99.90;;;;;;5004402;28;20461;-74
2021/09/29 12:12:25;;;;;;;2.93;2.63;;;14.50;99.90;;;;;;5001783;28;20574;-73
2021/09/29 12:14:54;;;;;;;2.63;2.10;;;14.30;99.90;;;;;;4992283;28;20561;-74
2021/09/29 12:17:27;;;;;;;3.10;2.80;;;14.10;99.90;;;;;;4987969;28;20453;-70
2021/09/29 12:19:57;;;;;;;3.40;3.10;;;14.00;99.90;;;;;;5001840;28;20898;-71
2021/09/29 12:22:28;;;;;;;5.10;3.37;;;14.00;99.90;;;;;;5007432;28;20535;-70
2021/09/29 12:25:02;;;;;;;3.20;2.60;;;14.10;99.90;;;;;;5004836;28;20891;-72
2021/09/29 12:27:35;;;;;;;2.70;2.20;;;13.80;99.90;;;;;;5005592;28;20910;-70
2021/09/29 12:30:16;;;;;;;2.30;2.10;;;13.60;99.90;;;;;;4997216;28;20456;-76
2021/09/29 12:32:57;;;;;;;1.67;1.33;;;13.60;99.90;;;;;;4998951;28;20445;-73
2021/09/29 12:35:34;;;;;;;2.23;1.40;;;13.50;99.90;;;;;;5002734;28;20449;-72
2021/09/29 12:38:03;;;;;;;2.80;2.23;;;13.40;99.90;;;;;;4997428;28;20480;-76
2021/09/29 12:40:33;;;;;;;2.67;1.70;;;13.60;99.90;;;;;;4997322;28;20478;-76
2021/09/29 12:43:06;;;;;;;4.23;2.53;;;13.90;99.90;;;;;;5004081;28;20454;-72
2021/09/29 12:45:37;;;;;;;2.97;2.67;;;14.40;99.90;;;;;;5005765;28;20420;-72
2021/09/29 12:48:07;;;;;;;4.53;2.40;;;14.80;99.90;;;;;;4993463;28;20469;-69
2021/09/29 12:50:42;;;;;;;2.13;1.97;;;14.80;99.90;;;;;;4999902;28;20978;-70
2021/09/29 12:53:24;;;;;;;1.73;1.60;;;15.00;99.90;;;;;;5002175;28;20463;-72
2021/09/29 12:55:56;;;;;;;5.20;2.03;;;14.80;99.90;;;;;;5004216;28;20934;-72
2021/09/29 12:58:23;;;;;;;2.70;2.40;;;14.60;99.90;;;;;;4996029;28;20885;-69
2021/09/29 13:00:51;;;;;;;4.10;3.37;;;15.00;99.90;;;;;;4992435;28;21751;-72
2021/09/29 13:03:18;;;;;;;3.73;2.97;;;15.90;99.90;;;;;;5001565;28;20973;-71
2021/09/29 13:05:47;;;;;;;2.73;2.30;;;16.90;99.90;;;;;;4992566;28;20854;-75
2021/09/29 13:08:15;;;;;;;3.10;2.00;;;16.90;99.90;;;;;;4995339;28;20522;-73
2021/09/29 13:10:43;;;;;;;3.97;2.40;;;16.70;99.90;;;;;;4998711;28;20473;-69
2021/09/29 13:13:11;;;;;;;2.30;2.10;;;16.40;99.90;;;;;;4996900;28;22139;-69
2021/09/29 13:15:41;;;;;;;2.70;2.43;;;16.00;99.90;;;;;;4997189;28;20457;-71
2021/09/29 13:18:12;;;;;;;2.17;1.97;;;16.00;99.90;;;;;;5002247;28;21222;-73
2021/09/29 13:20:40;;;;;;;3.40;2.10;;;16.10;99.90;;;;;;4998256;28;20564;-73
2021/09/29 13:23:12;;;;;;;2.37;2.17;;;16.10;99.90;;;;;;5001227;28;20458;-71
2021/09/29 13:26:00;;;;;;;3.17;2.87;;;16.00;99.90;;;;;;5000860;28;20653;-72
2021/09/29 13:36:47;;;;;;;4.00;1.20;;;12.80;99.90;;;;;;4996611;28;20471;-69
2021/09/29 13:39:17;;;;;;;10.53;1.30;;;12.40;99.90;;;;;;4996098;28;20568;-71
2021/09/29 13:41:48;;;;;;;2.23;1.50;;;12.10;99.90;;;;;;4998135;28;20555;-71
2021/09/29 13:44:16;;;;;;;1.50;1.00;;;12.10;99.90;;;;;;5003748;28;21005;-71
2021/09/29 13:46:43;;;;;;;1.67;1.03;;;12.10;99.90;;;;;;4998110;28;20795;-72
2021/09/29 13:49:11;;;;;;;2.07;1.27;;;12.00;99.90;;;;;;5002837;28;20882;-71
2021/09/29 13:51:40;;;;;;;1.93;1.20;;;11.90;99.90;;;;;;5003574;28;20502;-71
2021/09/29 13:54:09;;;;;;;3.93;1.50;;;12.00;99.90;;;;;;5006035;28;20485;-72
2021/09/29 13:56:46;;;;;;;1.90;1.40;;;12.00;99.90;;;;;;4997660;28;20989;-70
2021/09/29 13:59:28;;;;;;;1.30;1.00;;;12.10;99.90;;;;;;4997412;28;21180;-72
2021/09/29 14:29:29;;;;;;;7.43;1.40;;;13.40;99.90;;;;;;4992429;28;20509;-72
2021/09/29 14:32:07;;;;;;;3.90;2.00;;;13.90;99.90;;;;;;4998356;28;20500;-71
2021/09/29 14:34:34;;;;;;;3.63;1.27;;;15.30;99.90;;;;;;4999876;28;20445;-72
2021/09/29 14:37:01;;;;;;;1.50;1.03;;;15.80;99.90;;;;;;4998343;28;20926;-74
2021/09/29 14:39:29;;;;;;;2.80;1.20;;;15.80;99.90;;;;;;4996362;28;20465;-72
2021/09/29 14:41:56;;;;;;;2.00;1.20;;;16.40;99.90;;;;;;5001654;28;21051;-72
2021/09/29 14:44:23;;;;;;;1.43;1.20;;;16.80;99.90;;;;;;4990762;28;21096;-70
2021/09/29 14:46:50;;;;;;;2.17;0.93;;;16.90;99.90;;;;;;4990075;28;20457;-75
2021/09/29 14:49:19;;;;;;;2.37;1.40;;;16.90;99.90;;;;;;4996618;28;20592;-70
2021/09/29 14:51:46;;;;;;;1.30;1.20;;;17.30;99.90;;;;;;4991958;28;20659;-72
2021/09/29 14:54:13;;;;;;;1.50;0.87;;;18.10;99.90;;;;;;4992764;28;20483;-73
2021/09/29 14:56:40;;;;;;;2.87;1.20;;;17.50;99.90;;;;;;4992872;28;20535;-70
2021/09/29 14:59:07;;;;;;;3.30;1.47;;;16.30;99.90;;;;;;4990238;28;20542;-71
2021/09/29 15:01:34;;;;;;;2.93;1.47;;;16.20;99.90;;;;;;4992865;28;20553;-69
2021/09/29 15:04:02;;;;;;;1.40;1.00;;;16.70;99.90;;;;;;4988145;28;20458;-74
2021/09/29 15:06:31;;;;;;;2.30;1.20;;;16.50;99.90;;;;;;4980720;28;20457;-73
2021/09/29 15:08:58;;;;;;;3.87;1.73;;;16.40;99.90;;;;;;4992813;28;20461;-71
2021/09/29 15:11:25;;;;;;;2.73;1.80;;;16.20;99.90;;;;;;4991802;28;20647;-70